Time;durP1;ratioP1;P1;durP2;ratioP2;P2;SDS_P1;SDS_P2;PMS_P1;PMS_P2;Temp;Humidity;BMP_temperature;BMP_pressure;BME280_temperature;BME280_humidity;BME280_pressure;Samples;Min_cycle;Max_cycle;Signal;HPM_P1;HPM_P2
2021/06/22 00:02:21;;;;;;;12.95;7.78;;;17.40;99.90;;;16.23;100.00;100627.94;5018967;28;20033;-73
2021/06/22 00:04:47;;;;;;;13.05;6.70;;;17.40;99.90;;;16.23;100.00;100627.94;5001817;28;20067;-73
2021/06/22 00:07:19;;;;;;;16.60;8.20;;;17.40;99.90;;;16.23;100.00;100638.56;5021009;28;20040;-73
2021/06/22 00:09:46;;;;;;;18.50;8.05;;;17.40;99.90;;;16.24;100.00;100634.94;5007909;28;20067;-73
2021/06/22 00:12:12;;;;;;;17.40;7.88;;;17.30;99.90;;;16.20;100.00;100629.88;5018147;28;20040;-73
2021/06/22 00:14:38;;;;;;;18.20;7.55;;;17.40;99.90;;;16.20;100.00;100637.84;5017464;28;20037;-73
2021/06/22 00:17:04;;;;;;;16.90;8.55;;;17.30;99.90;;;16.19;100.00;100649.41;5011134;28;20116;-73
2021/06/22 00:19:30;;;;;;;14.43;7.63;;;17.30;99.90;;;16.17;100.00;100651.31;5018757;28;20064;-73
2021/06/22 00:21:56;;;;;;;19.45;7.68;;;17.30;99.90;;;16.12;100.00;100647.31;5020218;28;20051;-73
2021/06/22 00:24:21;;;;;;;21.17;7.25;;;17.20;99.90;;;16.06;100.00;100647.75;5011174;28;20478;-72
2021/06/22 00:26:47;;;;;;;17.80;6.47;;;17.10;99.90;;;15.98;100.00;100649.16;5022104;28;20078;-72
2021/06/22 00:29:16;;;;;;;18.90;6.82;;;17.10;99.90;;;15.93;100.00;100651.25;5017174;28;20066;-73
2021/06/22 00:31:42;;;;;;;13.82;6.10;;;17.10;99.90;;;15.93;100.00;100655.72;5016233;28;20055;-73
2021/06/22 00:34:09;;;;;;;12.55;6.47;;;17.00;99.90;;;15.88;100.00;100671.13;5002287;28;20593;-73
2021/06/22 00:36:34;;;;;;;13.52;6.63;;;17.00;99.90;;;15.88;100.00;100668.47;5011596;28;20129;-73
2021/06/22 00:39:01;;;;;;;15.68;6.47;;;17.00;99.90;;;15.89;100.00;100667.50;5021142;28;20138;-72
2021/06/22 00:41:27;;;;;;;14.60;5.85;;;17.00;99.90;;;15.79;100.00;100668.16;5024636;28;20029;-72
2021/06/22 00:43:52;;;;;;;15.80;5.60;;;16.90;99.90;;;15.79;100.00;100670.81;5025991;28;20060;-73
2021/06/22 00:46:18;;;;;;;8.82;5.65;;;16.90;99.90;;;15.78;100.00;100674.41;5020636;28;20420;-73
2021/06/22 00:48:44;;;;;;;11.20;5.47;;;16.90;99.90;;;15.82;100.00;100677.72;5025536;28;20408;-73
2021/06/22 00:51:10;;;;;;;17.92;6.22;;;17.00;99.90;;;15.77;100.00;100680.69;5034798;28;20068;-73
2021/06/22 00:53:36;;;;;;;15.20;5.55;;;16.90;99.90;;;15.76;100.00;100675.47;5020183;28;20253;-72
2021/06/22 00:56:02;;;;;;;16.90;5.70;;;16.90;99.90;;;15.74;100.00;100685.34;5034505;28;20162;-73
2021/06/22 00:58:28;;;;;;;13.52;5.72;;;16.90;99.90;;;15.76;100.00;100688.75;5025899;28;20518;-72
2021/06/22 01:00:54;;;;;;;14.70;5.50;;;16.90;99.90;;;15.70;100.00;100687.34;5021141;28;20144;-73
2021/06/22 01:03:20;;;;;;;12.13;6.00;;;16.80;99.90;;;15.64;100.00;100694.88;5011237;28;20055;-73
2021/06/22 01:05:46;;;;;;;13.20;5.75;;;16.70;99.90;;;15.53;100.00;100699.13;5020265;28;20067;-73
2021/06/22 01:08:13;;;;;;;13.27;5.32;;;16.70;99.90;;;15.57;100.00;100695.31;5024515;28;20048;-73
2021/06/22 01:10:39;;;;;;;12.25;4.35;;;16.70;99.90;;;15.55;100.00;100694.56;5003729;28;20064;-73
2021/06/22 01:13:06;;;;;;;18.08;5.18;;;16.70;99.90;;;15.53;100.00;100692.97;5024367;28;20068;-73
2021/06/22 01:15:32;;;;;;;14.05;4.07;;;16.60;99.90;;;15.42;100.00;100698.13;5021371;28;20091;-73
2021/06/22 01:18:02;;;;;;;11.93;4.10;;;16.60;99.90;;;15.41;100.00;100704.41;5023242;28;20356;-73
2021/06/22 01:20:31;;;;;;;20.30;4.32;;;16.60;99.90;;;15.37;100.00;100706.41;5024356;28;20488;-73
2021/06/22 01:23:01;;;;;;;14.52;4.60;;;16.50;99.90;;;15.35;100.00;100701.19;5022081;28;20056;-73
2021/06/22 01:25:28;;;;;;;19.67;4.40;;;16.50;99.90;;;15.30;100.00;100702.47;5021079;28;20103;-73
2021/06/22 01:27:55;;;;;;;16.38;4.35;;;16.50;99.90;;;15.29;100.00;100693.66;5021878;28;20141;-73
2021/06/22 01:30:27;;;;;;;15.32;4.10;;;16.50;99.90;;;15.30;100.00;100687.38;5021366;28;20075;-73
2021/06/22 01:32:56;;;;;;;13.88;4.35;;;16.50;99.90;;;15.27;100.00;100684.97;5019342;28;20607;-73
2021/06/22 01:35:23;;;;;;;16.40;5.03;;;16.50;99.90;;;15.27;100.00;100676.13;5023541;28;20084;-73
2021/06/22 01:37:53;;;;;;;12.18;4.35;;;16.50;99.90;;;15.23;100.00;100686.13;5010086;28;20134;-73
2021/06/22 01:40:20;;;;;;;24.90;4.70;;;16.40;99.90;;;15.19;100.00;100692.56;5022163;28;20069;-73
2021/06/22 01:42:46;;;;;;;18.58;5.35;;;16.40;99.90;;;15.21;100.00;100693.31;5022025;28;20078;-73
2021/06/22 01:45:15;;;;;;;15.05;5.60;;;16.40;99.90;;;15.16;100.00;100696.28;5001884;28;20520;-73
2021/06/22 01:47:42;;;;;;;14.65;4.82;;;16.40;99.90;;;15.14;100.00;100703.50;5004803;28;20051;-73
2021/06/22 01:50:09;;;;;;;15.20;6.10;;;16.30;99.90;;;15.07;100.00;100703.97;5002128;28;20088;-73
2021/06/22 01:52:36;;;;;;;20.88;6.63;;;16.20;99.90;;;15.05;100.00;100708.53;5020193;28;20029;-73
2021/06/22 01:57:49;;;;;;;26.70;6.47;;;16.20;99.90;;;15.07;100.00;100717.25;5016785;28;20197;-73
2021/06/22 02:00:16;;;;;;;25.23;6.28;;;16.30;99.90;;;15.11;100.00;100718.75;5003990;28;20060;-73
2021/06/22 02:02:43;;;;;;;19.52;5.80;;;16.30;99.90;;;15.07;100.00;100723.38;5026545;28;20081;-73
2021/06/22 02:05:11;;;;;;;15.68;6.60;;;16.30;99.90;;;15.08;100.00;100725.09;5021240;28;20155;-73
2021/06/22 02:07:37;;;;;;;16.92;6.65;;;16.20;99.90;;;15.04;100.00;100739.50;5014282;28;20092;-73
2021/06/22 02:10:05;;;;;;;18.13;6.82;;;16.20;99.90;;;15.03;100.00;100750.19;5018964;28;20075;-73
2021/06/22 02:12:31;;;;;;;15.45;6.82;;;16.20;99.90;;;15.08;100.00;100750.78;5020504;28;20071;-73
2021/06/22 02:14:56;;;;;;;27.88;6.68;;;16.30;99.90;;;15.08;100.00;100762.22;5019171;28;20079;-73
2021/06/22 02:17:22;;;;;;;21.27;5.90;;;16.20;99.90;;;15.05;100.00;100751.81;5019739;28;20059;-73
2021/06/22 02:19:48;;;;;;;17.90;6.22;;;16.20;99.90;;;15.03;100.00;100758.16;5022793;28;20535;-73
2021/06/22 02:22:14;;;;;;;14.93;5.75;;;16.20;99.90;;;14.97;100.00;100762.91;5021907;28;20056;-73
2021/06/22 02:24:40;;;;;;;17.73;5.95;;;16.10;99.90;;;14.92;100.00;100761.50;5020149;28;20071;-73
2021/06/22 02:27:06;;;;;;;15.10;6.10;;;16.10;99.90;;;14.87;100.00;100764.44;5021752;28;20135;-73
2021/06/22 02:29:33;;;;;;;29.10;6.97;;;16.00;99.90;;;14.83;100.00;100765.59;5017083;28;20142;-73
2021/06/22 02:31:59;;;;;;;15.40;6.05;;;16.00;99.90;;;14.80;100.00;100760.50;5020311;28;20070;-73
2021/06/22 02:34:25;;;;;;;15.93;5.30;;;16.00;99.90;;;14.77;100.00;100760.69;5018947;28;20120;-73
2021/06/22 02:36:51;;;;;;;18.92;6.13;;;15.90;99.90;;;14.75;100.00;100775.81;5021468;28;20052;-73
2021/06/22 02:39:16;;;;;;;14.20;5.63;;;15.90;99.90;;;14.69;100.00;100770.94;5021825;28;20539;-73
2021/06/22 02:41:42;;;;;;;16.52;5.70;;;15.80;99.90;;;14.65;100.00;100766.78;5017594;28;20054;-73
2021/06/22 02:44:08;;;;;;;19.73;5.35;;;15.80;99.90;;;14.63;100.00;100763.38;5035653;28;20220;-73
2021/06/22 02:46:34;;;;;;;18.02;5.05;;;15.80;99.90;;;14.61;100.00;100773.22;5014218;28;20636;-73
2021/06/22 02:49:00;;;;;;;18.10;5.20;;;15.80;99.90;;;14.62;100.00;100782.84;5020969;28;20043;-73
2021/06/22 02:51:26;;;;;;;17.98;4.88;;;15.80;99.90;;;14.63;100.00;100784.56;5019694;28;20159;-73
2021/06/22 02:53:52;;;;;;;16.73;4.97;;;15.80;99.90;;;14.63;100.00;100797.81;5019641;28;20471;-73
2021/06/22 02:56:18;;;;;;;17.23;3.95;;;15.80;99.90;;;14.60;100.00;100803.28;5019035;28;20066;-73
2021/06/22 02:58:44;;;;;;;16.45;4.35;;;15.80;99.90;;;14.59;100.00;100806.91;5012611;28;20054;-73
2021/06/22 03:01:09;;;;;;;17.02;4.22;;;15.80;99.90;;;14.61;100.00;100797.06;5019902;28;20420;-73
2021/06/22 03:03:35;;;;;;;9.70;3.67;;;15.80;99.90;;;14.57;100.00;100799.03;5019268;28;20466;-73
2021/06/22 03:06:01;;;;;;;14.45;4.15;;;15.70;99.90;;;14.53;100.00;100793.03;5019641;28;20048;-73
2021/06/22 03:08:27;;;;;;;11.55;3.22;;;15.80;99.90;;;14.55;100.00;100795.63;5018683;28;20155;-73
2021/06/22 03:10:53;;;;;;;14.35;3.83;;;15.70;99.90;;;14.55;100.00;100812.38;5009750;28;20059;-73
2021/06/22 03:13:19;;;;;;;11.82;3.70;;;15.70;99.90;;;14.55;100.00;100812.38;5020348;28;20049;-73
2021/06/22 03:15:45;;;;;;;15.57;3.88;;;;;;;14.59;100.00;100821.00;5008918;28;20486;-73
2021/06/22 03:18:11;;;;;;;13.85;3.78;;;15.80;99.90;;;14.61;100.00;100826.22;5021457;28;20117;-73
2021/06/22 03:20:36;;;;;;;12.40;3.78;;;15.80;99.90;;;14.64;100.00;100813.59;5020778;28;20073;-73
2021/06/22 03:23:02;;;;;;;13.48;3.17;;;15.80;99.90;;;14.60;100.00;100829.78;5021533;28;20058;-73
2021/06/22 03:25:28;;;;;;;11.50;3.65;;;15.80;99.90;;;14.56;100.00;100845.06;5019573;28;20060;-73
2021/06/22 03:27:56;;;;;;;13.50;3.80;;;15.70;99.90;;;14.55;100.00;100838.88;5016484;28;20138;-73
2021/06/22 03:30:22;;;;;;;14.70;3.42;;;15.70;99.90;;;14.55;100.00;100830.09;5020422;28;20060;-73
2021/06/22 03:32:48;;;;;;;13.65;3.92;;;15.70;99.90;;;14.54;100.00;100829.19;5019044;28;20059;-73
2021/06/22 03:35:15;;;;;;;9.85;3.88;;;15.70;99.90;;;14.57;100.00;100836.13;5018490;28;20106;-73
2021/06/22 03:37:41;;;;;;;12.20;3.45;;;15.80;99.90;;;14.59;100.00;100838.69;5002796;28;20075;-73
2021/06/22 03:40:08;;;;;;;11.43;3.63;;;15.80;99.90;;;14.61;100.00;100844.75;5015183;28;20569;-73
2021/06/22 03:42:35;;;;;;;10.48;3.63;;;15.80;99.90;;;14.63;100.00;100845.53;5020192;28;20110;-73
2021/06/22 03:45:11;;;;;;;13.90;3.42;;;15.80;99.90;;;14.64;100.00;100847.22;5007231;28;20467;-73
2021/06/22 03:47:38;;;;;;;10.40;3.30;;;15.80;99.90;;;14.68;100.00;100843.44;5030918;28;20139;-73
2021/06/22 03:50:06;;;;;;;8.18;3.60;;;15.90;99.90;;;14.70;100.00;100845.03;5022425;28;20162;-73
2021/06/22 03:52:33;;;;;;;16.40;3.72;;;15.90;99.90;;;14.69;100.00;100855.75;4992577;28;20076;-73
2021/06/22 03:54:59;;;;;;;9.85;3.55;;;15.90;99.90;;;14.70;100.00;100847.69;4998251;28;20080;-73
2021/06/22 03:57:25;;;;;;;10.95;3.67;;;15.90;99.90;;;14.74;100.00;100856.31;5000091;28;20057;-73
2021/06/22 03:59:51;;;;;;;15.85;4.68;;;15.90;99.90;;;14.76;100.00;100852.59;4999589;28;20059;-73
2021/06/22 04:02:19;;;;;;;10.68;4.35;;;16.00;99.90;;;14.81;100.00;100843.53;4997922;28;20190;-73
2021/06/22 04:04:45;;;;;;;19.60;5.13;;;16.00;99.90;;;14.81;100.00;100849.66;4989005;28;20122;-73
2021/06/22 04:07:12;;;;;;;12.15;5.20;;;16.00;99.90;;;14.93;100.00;100850.72;5009757;28;20493;-73
2021/06/22 04:09:37;;;;;;;14.05;5.38;;;16.10;99.90;;;14.96;99.95;100861.94;5001201;28;20476;-73
2021/06/22 04:12:04;;;;;;;12.27;5.22;;;16.10;99.90;;;14.92;100.00;100862.25;4997466;28;20057;-73
2021/06/22 04:14:30;;;;;;;19.17;5.45;;;16.10;99.90;;;14.81;100.00;100862.91;5003642;28;20071;-73
2021/06/22 04:16:55;;;;;;;18.70;5.47;;;16.00;99.90;;;14.70;100.00;100862.75;5020733;28;20053;-73
2021/06/22 04:19:21;;;;;;;15.73;5.15;;;15.90;99.90;;;14.65;100.00;100855.06;5023318;28;20194;-73
2021/06/22 04:21:47;;;;;;;15.63;5.53;;;15.80;99.90;;;14.57;100.00;100858.19;5023822;28;20067;-73
2021/06/22 04:24:13;;;;;;;18.33;7.25;;;15.80;99.90;;;14.49;100.00;100843.66;5022741;28;20095;-72
2021/06/22 04:26:39;;;;;;;21.02;6.80;;;15.70;99.90;;;14.48;100.00;100858.72;5021576;28;20064;-72
2021/06/22 04:29:05;;;;;;;17.70;7.18;;;15.70;99.90;;;14.51;100.00;100853.25;5024453;28;20142;-73
2021/06/22 04:31:31;;;;;;;17.25;6.45;;;15.70;99.90;;;14.51;100.00;100844.44;5025570;28;20109;-72
2021/06/22 04:33:57;;;;;;;21.02;6.93;;;15.70;99.90;;;14.48;100.00;100848.13;5013217;28;20075;-73
2021/06/22 04:36:23;;;;;;;15.93;7.13;;;15.60;99.90;;;14.39;100.00;100846.03;5023054;28;20062;-72
2021/06/22 04:38:49;;;;;;;16.35;6.85;;;15.50;99.90;;;14.39;100.00;100838.09;5023746;28;20055;-73
2021/06/22 04:41:14;;;;;;;15.82;7.60;;;15.60;99.90;;;14.44;100.00;100828.06;5026184;28;20546;-73
2021/06/22 04:43:40;;;;;;;22.60;7.53;;;15.70;99.90;;;14.50;100.00;100825.03;5022836;28;20166;-73
2021/06/22 04:46:06;;;;;;;21.85;7.63;;;15.70;99.90;;;14.55;100.00;100827.44;5022219;28;20064;-73
2021/06/22 04:48:32;;;;;;;18.13;6.85;;;15.80;99.90;;;14.63;100.00;100827.81;5020041;28;20055;-73
2021/06/22 04:50:58;;;;;;;16.83;7.15;;;15.90;99.90;;;14.72;99.25;100831.69;5005226;28;21135;-73
2021/06/22 04:53:26;;;;;;;20.70;5.82;;;16.00;99.90;;;14.89;98.41;100828.84;5021201;28;20087;-73
2021/06/22 04:55:52;;;;;;;17.73;6.00;;;16.10;99.90;;;14.79;97.96;100827.69;4997843;28;20076;-72
2021/06/22 04:58:18;;;;;;;20.05;5.50;;;16.00;99.90;;;14.77;97.55;100834.91;5005721;28;20415;-73
2021/06/22 05:00:45;;;;;;;15.40;5.20;;;16.30;99.90;;;15.26;96.85;100831.78;4992261;28;20057;-74
2021/06/22 05:03:10;;;;;;;10.60;4.43;;;16.80;99.90;;;15.78;93.65;100835.50;5002997;28;20105;-73
2021/06/22 05:05:36;;;;;;;14.30;4.00;;;17.00;99.90;;;15.54;92.99;100840.63;5000665;28;20067;-73
2021/06/22 05:08:02;;;;;;;8.43;3.40;;;16.70;99.90;;;15.34;94.41;100853.38;4996014;28;20515;-73
2021/06/22 05:10:28;;;;;;;10.35;3.00;;;16.50;99.90;;;15.03;93.97;100866.88;5004383;28;20056;-72
2021/06/22 05:12:54;;;;;;;11.32;3.33;;;16.30;99.90;;;14.93;94.31;100862.16;5001914;28;20420;-73
2021/06/22 05:15:20;;;;;;;10.50;2.80;;;16.30;99.90;;;15.20;92.93;100866.66;5000742;28;20509;-73
2021/06/22 05:17:46;;;;;;;9.95;2.80;;;16.90;99.90;;;16.11;90.41;100866.94;5000623;28;20059;-73
2021/06/22 05:20:12;;;;;;;9.25;2.55;;;18.10;99.90;;;17.12;85.31;100868.81;5002259;28;20063;-73
2021/06/22 05:22:38;;;;;;;10.63;2.55;;;19.20;99.90;;;18.06;81.00;100875.28;4976867;28;20217;-73
2021/06/22 05:25:05;;;;;;;7.57;2.50;;;19.30;99.90;;;17.32;81.94;100878.91;5001249;28;20502;-73
2021/06/22 05:27:31;;;;;;;15.40;3.92;;;18.80;99.90;;;17.11;84.26;100881.28;5007711;28;20025;-73
2021/06/22 05:29:57;;;;;;;6.25;2.00;;;18.60;99.90;;;16.89;84.67;100883.75;5001039;28;20068;-73
2021/06/22 05:32:23;;;;;;;7.03;2.15;;;18.30;99.90;;;16.63;84.40;100890.88;4995988;28;20038;-73
2021/06/22 05:34:49;;;;;;;11.10;2.45;;;18.00;99.90;;;16.41;86.69;100889.69;5009109;28;20060;-73
2021/06/22 05:37:15;;;;;;;7.05;2.30;;;17.40;99.90;;;15.75;86.92;100894.97;4992454;28;20065;-73
2021/06/22 05:39:41;;;;;;;7.88;2.70;;;17.00;99.90;;;15.59;89.21;100888.91;4990421;28;20026;-73
2021/06/22 05:42:07;;;;;;;6.60;2.08;;;16.90;99.90;;;15.68;90.59;100892.78;4992197;28;20034;-73
2021/06/22 05:44:32;;;;;;;8.27;1.85;;;16.90;99.90;;;15.77;89.30;100895.72;5000185;28;20529;-73
2021/06/22 05:46:58;;;;;;;6.03;1.92;;;16.90;99.90;;;15.63;89.26;100893.09;5016723;28;20068;-73
2021/06/22 05:49:24;;;;;;;7.07;2.42;;;16.80;99.90;;;15.59;89.83;100888.91;5001855;28;20421;-73
2021/06/22 05:51:52;;;;;;;9.77;2.55;;;16.80;99.90;;;15.58;89.76;100885.41;4999868;28;20056;-73
2021/06/22 05:54:18;;;;;;;12.48;2.78;;;16.90;99.90;;;15.68;88.50;100884.81;4994871;28;20068;-73
2021/06/22 05:56:44;;;;;;;6.85;2.35;;;16.80;99.90;;;15.66;89.26;100889.38;5001222;28;20056;-73
2021/06/22 05:59:10;;;;;;;15.90;2.58;;;;;;;15.85;89.56;100891.72;4983975;28;20084;-73
2021/06/22 06:01:36;;;;;;;10.43;2.63;;;17.20;99.90;;;15.90;87.72;100890.47;4999741;28;20030;-73
2021/06/22 06:04:02;;;;;;;11.25;2.72;;;17.70;99.90;;;16.01;87.88;100895.06;4999001;28;20098;-73
2021/06/22 06:06:28;;;;;;;8.82;2.75;;;17.30;99.90;;;16.05;88.63;100895.72;5019959;28;20550;-73
2021/06/22 06:08:54;;;;;;;8.10;2.65;;;17.40;99.90;;;16.18;87.64;100904.56;5022512;28;20025;-73
2021/06/22 06:11:20;;;;;;;7.70;2.60;;;17.40;99.90;;;15.91;88.58;100909.91;5036160;28;20037;-72
2021/06/22 06:13:46;;;;;;;7.65;2.85;;;17.10;99.90;;;15.61;90.22;100913.56;5023921;28;20060;-73
2021/06/22 06:16:12;;;;;;;12.60;3.00;;;16.90;99.90;;;15.59;91.60;100912.81;5010214;28;20098;-73
2021/06/22 06:18:38;;;;;;;11.27;3.45;;;16.80;99.90;;;15.59;90.99;100913.69;5006573;28;20067;-73
2021/06/22 06:21:04;;;;;;;12.65;3.83;;;16.80;99.90;;;15.51;91.01;100917.78;5019085;28;20147;-73
2021/06/22 06:23:38;;;;;;;9.60;2.85;;;16.70;99.90;;;15.43;92.41;100920.91;5012520;28;20097;-73
2021/06/22 06:26:04;;;;;;;9.05;3.03;;;16.70;99.90;;;15.48;92.30;100916.16;5021918;28;20067;-73
2021/06/22 06:28:38;;;;;;;7.28;2.78;;;16.70;99.90;;;15.49;92.03;100925.00;5020832;28;20059;-73
2021/06/22 06:31:05;;;;;;;6.30;2.83;;;16.80;99.90;;;15.66;92.67;100913.25;5019907;28;20138;-73
2021/06/22 06:33:31;;;;;;;4.82;2.65;;;16.90;99.90;;;15.82;91.94;100927.28;5021451;28;20090;-73
2021/06/22 06:35:57;;;;;;;7.70;2.58;;;17.00;99.90;;;15.93;90.88;100923.91;4994743;28;20045;-73
2021/06/22 06:38:23;;;;;;;10.45;2.95;;;17.40;99.90;;;16.61;88.03;100913.09;4993073;28;20032;-73
2021/06/22 06:40:49;;;;;;;7.30;2.42;;;18.00;99.90;;;16.88;86.03;100917.50;5030298;28;20143;-72
2021/06/22 06:43:15;;;;;;;8.23;2.67;;;18.00;99.90;;;16.49;86.83;100926.38;5019157;28;20067;-73
2021/06/22 06:45:41;;;;;;;16.42;2.50;;;17.60;99.90;;;16.14;88.72;100927.81;5004418;28;20022;-72
2021/06/22 06:48:08;;;;;;;6.65;2.08;;;17.50;99.90;;;16.10;90.00;100923.66;4991480;28;20060;-73
2021/06/22 06:50:34;;;;;;;7.13;2.10;;;17.20;99.90;;;15.96;89.51;100939.63;4993039;28;20064;-73
2021/06/22 06:53:00;;;;;;;6.20;2.40;;;17.20;99.90;;;15.90;89.69;100932.09;5001144;28;20447;-73
2021/06/22 06:55:29;;;;;;;9.82;2.50;;;17.00;99.90;;;15.61;90.20;100934.78;4992076;28;22560;-73
2021/06/22 06:58:02;;;;;;;4.88;2.60;;;16.90;99.90;;;15.59;90.98;100940.22;4998734;28;20045;-73
2021/06/22 07:00:33;;;;;;;4.43;2.38;;;16.80;99.90;;;15.57;92.28;100938.59;4998520;28;20063;-73
2021/06/22 07:03:00;;;;;;;8.88;2.20;;;16.70;99.90;;;15.53;91.79;100935.31;4991693;28;20025;-73
2021/06/22 07:05:28;;;;;;;6.18;2.72;;;16.70;99.90;;;15.41;92.40;100946.69;5001359;28;20029;-72
2021/06/22 07:07:54;;;;;;;8.25;2.22;;;16.50;99.90;;;15.23;93.32;100946.06;5022258;28;21740;-73
2021/06/22 07:10:20;;;;;;;9.48;2.55;;;16.40;99.90;;;15.09;94.41;100954.84;5017783;28;20057;-72
2021/06/22 07:12:47;;;;;;;5.90;2.28;;;16.30;99.90;;;15.18;95.20;100956.09;5004211;28;21618;-72
2021/06/22 07:15:14;;;;;;;6.90;2.65;;;16.40;99.90;;;15.22;94.10;100960.25;5018088;28;20439;-72
2021/06/22 07:17:41;;;;;;;8.15;2.50;;;16.40;99.90;;;15.15;95.05;100970.41;5015140;28;20064;-73
2021/06/22 07:20:08;;;;;;;6.28;2.47;;;16.30;99.90;;;15.20;95.10;100971.91;5021123;28;20068;-73
2021/06/22 07:22:35;;;;;;;5.97;3.00;;;16.50;99.90;;;15.30;95.25;100965.09;5021260;28;20423;-73
2021/06/22 07:25:02;;;;;;;4.70;2.30;;;16.50;99.90;;;15.30;93.27;100970.41;5020298;28;20523;-73
2021/06/22 07:27:28;;;;;;;5.30;2.40;;;16.30;99.90;;;15.04;94.27;100985.28;5021015;28;20033;-72
2021/06/22 07:29:54;;;;;;;6.00;2.22;;;16.30;99.90;;;15.22;92.86;100978.81;5016891;28;20078;-73
2021/06/22 07:32:20;;;;;;;4.90;2.10;;;16.60;99.90;;;15.63;92.08;100980.66;5019761;28;20582;-73
2021/06/22 07:34:46;;;;;;;2.80;1.65;;;16.90;99.90;;;15.87;90.04;100972.13;5010868;28;20083;-73
2021/06/22 07:37:12;;;;;;;3.63;1.50;;;17.10;99.90;;;16.13;88.86;100973.94;5017975;28;20485;-73
2021/06/22 07:39:38;;;;;;;4.25;1.92;;;17.40;99.90;;;16.33;88.60;100966.44;5019213;28;20071;-73
2021/06/22 07:42:04;;;;;;;6.97;1.92;;;17.50;99.90;;;16.41;88.23;100977.38;5012091;28;20543;-73
2021/06/22 07:44:30;;;;;;;3.70;1.85;;;17.40;99.90;;;15.93;88.47;100977.88;4985465;28;20059;-73
2021/06/22 07:46:56;;;;;;;11.38;2.03;;;17.20;99.90;;;15.83;90.23;100986.53;5009705;28;20051;-73
2021/06/22 07:49:22;;;;;;;9.00;2.17;;;17.00;99.90;;;15.88;90.71;100995.94;5020281;28;20613;-73
2021/06/22 07:51:48;;;;;;;16.02;3.35;;;17.10;99.90;;;15.81;91.00;100999.06;5017204;28;20065;-73
2021/06/22 07:54:14;;;;;;;13.00;3.35;;;16.90;99.90;;;15.58;92.71;100996.91;5019985;28;20021;-73
2021/06/22 07:56:41;;;;;;;14.85;3.53;;;16.60;99.90;;;15.11;94.36;101008.66;5018524;28;20036;-73
2021/06/22 07:59:07;;;;;;;9.02;3.40;;;16.40;99.90;;;15.06;94.53;101004.59;5016690;28;20058;-73
2021/06/22 08:01:33;;;;;;;11.93;3.60;;;16.40;99.90;;;15.32;94.20;101008.31;4989411;28;20051;-73
2021/06/22 08:03:59;;;;;;;10.60;3.70;;;16.60;99.90;;;15.65;92.69;101002.66;4986691;28;20052;-73
2021/06/22 08:06:25;;;;;;;6.88;3.00;;;16.90;99.90;;;15.92;90.11;101009.88;5014623;28;20034;-72
2021/06/22 08:08:51;;;;;;;10.65;3.10;;;16.90;99.90;;;15.65;89.98;101015.94;4991125;28;20199;-72
2021/06/22 08:11:17;;;;;;;5.90;2.58;;;16.90;99.90;;;15.77;89.93;101007.22;4998455;28;20556;-73
2021/06/22 08:13:43;;;;;;;8.82;2.90;;;17.00;99.90;;;15.78;89.18;101019.53;4998676;28;20076;-72
2021/06/22 08:16:09;;;;;;;6.18;2.42;;;16.90;99.90;;;15.66;89.46;101020.31;4982952;28;20060;-72
2021/06/22 08:18:36;;;;;;;8.70;2.30;;;16.80;99.90;;;15.68;89.48;101012.22;4999889;28;20527;-72
2021/06/22 08:21:04;;;;;;;5.38;2.20;;;17.00;99.90;;;15.89;87.79;101013.53;4988735;28;20060;-72
2021/06/22 08:23:30;;;;;;;10.73;2.33;;;17.10;99.90;;;15.86;87.52;101013.75;4996555;28;20053;-72
2021/06/22 08:25:56;;;;;;;5.00;2.30;;;17.10;99.90;;;16.01;88.63;101025.19;5002328;28;20147;-72
2021/06/22 08:28:23;;;;;;;10.23;2.55;;;17.20;99.90;;;16.07;87.63;101029.25;4994262;28;20179;-72
2021/06/22 08:30:50;;;;;;;8.65;2.53;;;17.10;99.90;;;16.09;88.47;101041.50;5001206;28;20072;-72
2021/06/22 08:33:17;;;;;;;8.57;2.50;;;17.50;99.90;;;16.64;86.82;101033.50;4993760;28;20050;-73
2021/06/22 08:35:43;;;;;;;6.47;2.30;;;17.80;99.90;;;16.66;83.12;101040.41;4980161;28;20095;-73
2021/06/22 08:38:13;;;;;;;8.70;2.30;;;17.80;99.90;;;16.79;84.94;101037.78;4987381;28;20060;-73
2021/06/22 08:40:46;;;;;;;10.38;2.10;;;17.80;99.90;;;16.55;86.59;101038.47;4979081;28;20045;-73
2021/06/22 08:43:14;;;;;;;8.02;2.10;;;17.90;99.90;;;16.68;84.20;101038.50;5004542;28;20034;-73
2021/06/22 08:45:42;;;;;;;4.57;1.95;;;17.90;99.90;;;16.75;82.63;101038.94;5002019;28;20046;-73
2021/06/22 08:48:10;;;;;;;4.38;2.20;;;18.00;99.90;;;16.75;82.30;101044.25;4999245;28;20083;-73
2021/06/22 08:50:43;;;;;;;5.30;2.40;;;17.80;99.90;;;16.50;83.27;101045.91;4997127;28;20117;-72
2021/06/22 08:53:12;;;;;;;8.70;2.55;;;17.90;99.90;;;16.65;82.55;101052.00;5000072;28;20555;-72
2021/06/22 08:55:38;;;;;;;4.38;1.92;;;18.10;99.90;;;17.33;80.37;101040.28;5004860;28;20049;-73
2021/06/22 08:58:22;;;;;;;5.68;2.38;;;18.60;99.90;;;17.73;78.51;101041.91;4999980;28;20030;-73
2021/06/22 09:01:03;;;;;;;5.03;2.20;;;19.50;99.90;;;18.97;72.38;101034.56;4990903;28;20550;-72
2021/06/22 09:03:29;;;;;;;5.63;2.00;;;20.40;99.90;;;19.37;71.19;101037.66;4970976;28;20034;-73
2021/06/22 09:06:03;;;;;;;6.28;2.38;;;20.80;99.90;;;19.35;70.20;101046.72;4963021;28;20962;-73
2021/06/22 09:08:40;;;;;;;8.00;2.38;;;21.00;99.90;;;20.10;68.39;101043.41;4961808;28;20049;-73
2021/06/22 09:11:29;;;;;;;8.63;1.90;;;21.30;99.90;;;19.96;65.76;101057.09;4980881;28;20046;-73
2021/06/22 09:14:03;;;;;;;4.82;1.50;;;21.00;99.90;;;19.87;66.09;101047.97;4982687;28;20037;-73
2021/06/22 09:17:16;;;;;;;3.85;1.67;;;20.90;99.90;;;18.95;69.24;101060.53;4964639;28;20179;-73
2021/06/22 09:20:08;;;;;;;8.50;1.55;;;20.10;99.90;;;18.47;71.23;101056.09;4973329;28;20045;-73
2021/06/22 09:23:20;;;;;;;4.32;1.80;;;20.00;99.90;;;18.63;70.55;101050.44;4978872;28;20558;-73
2021/06/22 09:26:43;;;;;;;9.45;2.15;;;19.60;99.90;;;18.41;73.00;101051.19;4975280;28;20481;-73
2021/06/22 09:29:51;;;;;;;6.70;2.10;;;19.70;99.90;;;18.42;72.77;101053.75;4982591;28;20033;-72
2021/06/22 09:33:11;;;;;;;4.70;1.90;;;19.60;99.90;;;18.22;68.16;101057.88;4980372;28;20107;-73
2021/06/22 09:36:45;;;;;;;5.10;2.20;;;19.20;99.90;;;18.01;70.11;101068.31;4979343;28;20056;-72
2021/06/22 09:40:17;;;;;;;5.25;2.08;;;19.60;99.90;;;19.12;67.05;101069.91;4987013;28;20033;-73
2021/06/22 09:43:23;;;;;;;4.28;2.13;;;20.30;99.90;;;18.95;66.01;101072.03;4981155;28;20099;-72
2021/06/22 09:45:58;;;;;;;5.05;1.65;;;20.80;99.90;;;19.94;61.97;101056.34;4982745;28;20378;-72
2021/06/22 09:49:02;;;;;;;3.10;1.80;;;21.50;99.90;;;20.76;59.85;101063.91;4965339;28;20045;-73
2021/06/22 09:52:18;;;;;;;5.70;1.90;;;21.60;99.90;;;20.48;60.43;101075.03;4980018;28;20472;-73
2021/06/22 09:55:40;;;;;;;3.15;1.67;;;21.00;99.90;;;19.52;61.46;101077.47;4983684;28;20045;-73
2021/06/22 09:58:54;;;;;;;4.72;1.52;;;20.70;99.90;;;19.67;59.25;101076.25;4953742;28;20119;-72
2021/06/22 10:01:53;;;;;;;4.93;1.42;;;20.50;99.90;;;19.36;61.55;101084.00;4971241;28;20036;-73
2021/06/22 10:04:51;;;;;;;5.32;1.40;;;20.30;99.90;;;18.97;61.47;101093.28;4970937;28;20071;-73
2021/06/22 10:07:28;;;;;;;5.57;1.70;;;20.40;99.90;;;19.59;65.25;101089.34;5008014;28;20026;-73
2021/06/22 10:10:11;;;;;;;9.15;1.90;;;20.80;99.90;;;19.85;63.39;101090.84;4958160;28;20034;-73
2021/06/22 10:12:53;;;;;;;4.53;1.95;;;21.00;99.90;;;19.51;63.54;101097.13;4975021;28;20025;-73
2021/06/22 10:15:36;;;;;;;7.90;1.77;;;20.80;99.90;;;19.91;65.35;101105.53;4967860;28;20068;-73
2021/06/22 10:18:06;;;;;;;8.60;2.00;;;20.90;99.90;;;19.66;66.40;101111.97;4969168;28;20391;-73
2021/06/22 10:20:46;;;;;;;4.68;1.80;;;21.10;99.90;;;19.66;63.56;101110.13;4966896;28;20028;-73